Аэропорт: Оренбург-Центральный. Оренбург

ICAO: UWOO

METAR:
2018/07/16 20:00
UWOO 162000Z 09006MPS CAVOK 24/13 Q1009 R08/CLRD65 NOSIG RMK QFE746/0995
METAR:
2018/07/16 18:21
TAF UWOO 161700Z 1618/1718 07007G12MPS 9999 SCT020CB TX32/1712Z TN20/1701Z 
      TEMPO 1618/1718 12009G15MPS 3100 -TSRAGR BKN015CB